createdAt,value
2023-03-17T00:00:43.607Z,4.60
2023-03-17T00:04:45.427Z,3.90
2023-03-17T00:08:47.411Z,3.90
2023-03-17T00:12:50.757Z,4.13
2023-03-17T00:16:52.859Z,4.10
2023-03-17T00:20:54.894Z,4.33
2023-03-17T00:24:56.720Z,3.77
2023-03-17T00:28:58.766Z,4.83
2023-03-17T00:33:01.867Z,4.23
2023-03-17T00:37:04.446Z,4.70
2023-03-17T00:41:06.350Z,4.40
2023-03-17T00:45:10.258Z,4.37
2023-03-17T00:49:23.543Z,4.73
2023-03-17T00:53:25.855Z,4.60
2023-03-17T00:57:27.879Z,4.27
2023-03-17T01:01:30.264Z,4.00
2023-03-17T01:05:32.041Z,3.60
2023-03-17T01:09:34.255Z,4.07
2023-03-17T01:13:36.816Z,3.70
2023-03-17T01:17:39.534Z,4.33
2023-03-17T01:21:42.526Z,3.77
2023-03-17T01:25:44.891Z,3.37
2023-03-17T01:29:46.726Z,4.50
2023-03-17T01:33:48.610Z,4.17
2023-03-17T01:37:51.693Z,3.93
2023-03-17T01:41:56.848Z,3.60
2023-03-17T01:46:37.446Z,3.00
2023-03-17T01:50:39.429Z,3.40
2023-03-17T01:55:04.432Z,2.90
2023-03-17T01:59:07.616Z,3.33
2023-03-17T02:03:09.748Z,3.17
2023-03-17T02:07:12.538Z,3.10
2023-03-17T02:11:15.389Z,2.80
2023-03-17T02:15:17.479Z,3.63
2023-03-17T02:19:19.340Z,3.30
2023-03-17T02:23:22.911Z,3.30
2023-03-17T02:27:36.585Z,3.27
2023-03-17T02:31:38.394Z,3.17
2023-03-17T02:35:40.933Z,3.27
2023-03-17T02:39:42.859Z,3.70
2023-03-17T02:43:44.874Z,3.37
2023-03-17T02:47:47.101Z,3.83
2023-03-17T02:51:48.898Z,3.40
2023-03-17T02:55:50.782Z,3.50
2023-03-17T02:59:52.865Z,4.10
2023-03-17T03:03:55.091Z,3.83
2023-03-17T03:08:03.033Z,3.50
2023-03-17T03:12:18.039Z,3.93
2023-03-17T03:16:19.884Z,4.10
2023-03-17T03:20:28.239Z,3.87
2023-03-17T03:24:37.013Z,3.67
2023-03-17T03:28:38.934Z,3.80
2023-03-17T03:32:40.812Z,3.70
2023-03-17T03:36:42.911Z,3.40
2023-03-17T03:40:45.048Z,3.87
2023-03-17T03:44:46.884Z,4.03
2023-03-17T03:48:48.698Z,4.20
2023-03-17T03:52:50.583Z,4.00
2023-03-17T03:56:52.677Z,3.93
2023-03-17T04:00:54.533Z,4.10
2023-03-17T04:04:56.449Z,3.90
2023-03-17T04:08:58.551Z,3.80
2023-03-17T04:13:00.675Z,3.83
2023-03-17T04:17:03.096Z,3.90
2023-03-17T04:21:05.523Z,3.40
2023-03-17T04:25:08.081Z,3.70
2023-03-17T04:29:10.811Z,3.63
2023-03-17T04:33:12.692Z,3.80
2023-03-17T04:37:14.507Z,4.17
2023-03-17T04:41:16.488Z,3.70
2023-03-17T04:45:18.426Z,3.60
2023-03-17T04:49:20.193Z,3.77
2023-03-17T04:53:22.349Z,3.37
2023-03-17T04:57:24.621Z,3.27
2023-03-17T05:01:26.512Z,3.47
2023-03-17T05:05:33.001Z,3.63
2023-03-17T05:09:35.071Z,3.67
2023-03-17T05:13:38.559Z,3.37
2023-03-17T05:17:40.880Z,4.20
2023-03-17T05:21:42.820Z,3.63
2023-03-17T05:25:44.752Z,3.00
2023-03-17T05:29:46.724Z,3.60
2023-03-17T05:33:49.228Z,3.87
2023-03-17T05:37:51.194Z,3.23
2023-03-17T05:41:53.371Z,3.60
2023-03-17T05:45:57.699Z,3.47
2023-03-17T05:50:01.261Z,3.13
2023-03-17T05:54:03.280Z,3.33
2023-03-17T05:58:07.962Z,4.00
2023-03-17T06:02:11.544Z,3.97
2023-03-17T06:06:16.401Z,3.50
2023-03-17T06:10:18.576Z,3.50
2023-03-17T06:14:24.134Z,3.33
2023-03-17T06:18:28.455Z,3.60
2023-03-17T06:22:30.956Z,3.37
2023-03-17T06:26:33.055Z,3.97
2023-03-17T06:30:35.392Z,3.90
2023-03-17T06:34:37.291Z,3.50
2023-03-17T06:38:39.516Z,3.73
2023-03-17T06:42:41.481Z,4.10
2023-03-17T06:46:43.447Z,4.30
2023-03-17T06:50:47.573Z,4.00
2023-03-17T06:54:49.480Z,3.53
2023-03-17T06:58:54.026Z,3.67
2023-03-17T07:02:56.253Z,3.83
2023-03-17T07:06:58.098Z,3.80
2023-03-17T07:11:00.306Z,3.43
2023-03-17T07:15:02.208Z,4.00
2023-03-17T07:19:04.837Z,4.00
2023-03-17T07:23:07.843Z,4.07
2023-03-17T07:27:16.511Z,3.87
2023-03-17T07:31:18.407Z,3.97
2023-03-17T07:35:20.389Z,3.67
2023-03-17T07:39:22.374Z,3.90
2023-03-17T07:43:24.172Z,3.80
2023-03-17T07:47:26.255Z,4.00
2023-03-17T07:51:28.272Z,3.90
2023-03-17T07:55:31.653Z,3.33
2023-03-17T07:59:33.837Z,3.50
2023-03-17T08:03:38.636Z,3.77
2023-03-17T08:07:41.801Z,3.70
2023-03-17T08:11:44.841Z,3.63
2023-03-17T08:15:47.412Z,3.60
2023-03-17T08:19:49.370Z,3.43
2023-03-17T08:23:51.483Z,3.37
2023-03-17T08:27:54.114Z,3.40
2023-03-17T08:31:56.859Z,3.00
2023-03-17T08:35:59.136Z,3.83
2023-03-17T08:40:01.286Z,3.53
2023-03-17T08:44:03.829Z,3.30
2023-03-17T08:48:05.731Z,3.33
2023-03-17T08:52:08.150Z,3.37
2023-03-17T08:56:10.046Z,3.63
2023-03-17T09:00:14.073Z,3.67
2023-03-17T09:04:16.931Z,3.50
2023-03-17T09:08:18.981Z,3.43
2023-03-17T09:12:20.817Z,3.40
2023-03-17T09:16:24.363Z,3.23
2023-03-17T09:20:26.347Z,3.03
2023-03-17T09:24:28.139Z,3.13
2023-03-17T09:28:30.046Z,3.57
2023-03-17T09:32:32.512Z,3.33
2023-03-17T09:36:34.793Z,3.10
2023-03-17T09:40:48.014Z,3.10
2023-03-17T09:45:19.986Z,3.23
2023-03-17T09:49:29.927Z,3.23
2023-03-17T09:53:37.628Z,3.30
2023-03-17T09:57:40.089Z,2.87
2023-03-17T10:01:42.323Z,3.57
2023-03-17T10:05:44.905Z,3.50
2023-03-17T10:10:05.234Z,2.90
2023-03-17T10:14:51.787Z,3.30
2023-03-17T10:19:01.335Z,3.13
2023-03-17T10:23:12.419Z,2.70
2023-03-17T10:27:14.913Z,3.17
2023-03-17T10:31:19.984Z,2.80
2023-03-17T10:35:23.477Z,3.10
2023-03-17T10:39:25.318Z,2.87
2023-03-17T10:43:36.153Z,3.40
2023-03-17T10:47:39.696Z,3.13
2023-03-17T10:51:41.531Z,2.97
2023-03-17T10:55:51.039Z,3.40
2023-03-17T10:59:54.126Z,3.30
2023-03-17T11:04:20.838Z,3.10
2023-03-17T11:08:23.217Z,3.23
2023-03-17T11:12:43.203Z,3.70
2023-03-17T11:17:01.218Z,3.33
2023-03-17T11:21:18.655Z,3.27
2023-03-17T11:25:21.005Z,3.43
2023-03-17T11:29:52.044Z,3.10
2023-03-17T11:34:27.388Z,3.20
2023-03-17T11:38:30.962Z,3.20
2023-03-17T11:43:04.130Z,3.67
2023-03-17T11:47:43.486Z,3.50
2023-03-17T11:52:20.495Z,3.50
2023-03-17T11:56:53.282Z,3.33
2023-03-17T12:00:58.956Z,3.87
2023-03-17T12:05:17.274Z,3.70
2023-03-17T12:09:37.428Z,3.60
2023-03-17T12:13:47.496Z,3.37
2023-03-17T12:18:07.250Z,3.70
2023-03-17T12:22:28.433Z,3.43
2023-03-17T12:26:51.327Z,3.97
2023-03-17T12:31:02.550Z,3.83
2023-03-17T12:35:35.004Z,3.90
2023-03-17T12:39:37.775Z,4.10
2023-03-17T12:44:13.342Z,4.40
2023-03-17T12:48:37.700Z,4.10
2023-03-17T12:53:15.525Z,4.30
2023-03-17T12:57:28.996Z,4.37
2023-03-17T13:01:42.039Z,4.73
2023-03-17T13:05:48.250Z,4.20
2023-03-17T13:09:56.123Z,4.47
2023-03-17T13:14:27.265Z,4.37
2023-03-17T13:18:35.169Z,4.53
2023-03-17T13:22:43.029Z,4.87
2023-03-17T13:27:00.925Z,4.60
2023-03-17T13:31:20.341Z,4.80
2023-03-17T13:35:25.843Z,4.93
2023-03-17T13:40:22.294Z,5.10
2023-03-17T13:44:35.424Z,5.20
2023-03-17T13:48:37.318Z,5.13
2023-03-17T13:52:54.544Z,5.67
2023-03-17T13:57:00.241Z,5.63
2023-03-17T14:01:07.307Z,5.60
2023-03-17T14:05:30.136Z,5.53
2023-03-17T14:09:39.280Z,5.33
2023-03-17T14:14:31.935Z,6.37
2023-03-17T14:18:41.213Z,5.90
2023-03-17T14:22:46.058Z,5.83
2023-03-17T14:26:48.762Z,5.93
2023-03-17T14:30:56.106Z,5.77
2023-03-17T14:34:58.652Z,6.03
2023-03-17T14:39:00.462Z,6.30
2023-03-17T14:43:03.189Z,6.30
2023-03-17T14:47:07.405Z,6.80
2023-03-17T14:51:28.454Z,6.53
2023-03-17T14:55:43.063Z,6.57
2023-03-17T14:59:56.384Z,6.40
2023-03-17T15:04:22.056Z,7.00
2023-03-17T15:08:41.024Z,6.30
2023-03-17T15:12:43.080Z,6.87
2023-03-17T15:16:53.214Z,6.90
2023-03-17T15:20:55.959Z,7.07
2023-03-17T15:25:02.289Z,7.03
2023-03-17T15:29:04.077Z,6.77
2023-03-17T15:33:34.808Z,6.97
2023-03-17T15:37:36.616Z,7.47
2023-03-17T15:41:42.531Z,7.40
2023-03-17T15:45:45.229Z,7.33
2023-03-17T15:49:47.717Z,7.43
2023-03-17T15:53:49.611Z,8.30
2023-03-17T15:57:55.253Z,7.63
2023-03-17T16:01:57.298Z,7.53
2023-03-17T16:06:01.821Z,7.30
2023-03-17T16:10:24.934Z,7.77
2023-03-17T16:14:28.008Z,8.40
2023-03-17T16:18:36.151Z,7.13
2023-03-17T16:22:43.563Z,7.67
2023-03-17T16:26:51.206Z,7.93
2023-03-17T16:30:54.610Z,7.93
2023-03-17T16:34:57.634Z,7.30
2023-03-17T16:39:00.108Z,8.23
2023-03-17T16:43:10.382Z,7.27
2023-03-17T16:47:17.611Z,7.83
2023-03-17T16:51:19.625Z,8.00
2023-03-17T16:55:22.246Z,7.80
2023-03-17T16:59:31.254Z,7.63
2023-03-17T17:03:33.163Z,7.17
2023-03-17T17:07:35.073Z,7.57
2023-03-17T17:11:36.937Z,8.10
2023-03-17T17:15:39.390Z,8.57
2023-03-17T17:19:41.284Z,7.83
2023-03-17T17:23:43.090Z,7.80
2023-03-17T17:27:48.733Z,7.47
2023-03-17T17:31:50.788Z,7.80
2023-03-17T17:35:52.803Z,7.33
2023-03-17T17:40:10.034Z,7.93
2023-03-17T17:44:11.971Z,7.13
2023-03-17T17:48:19.735Z,8.03
2023-03-17T17:52:43.728Z,8.80
2023-03-17T17:56:47.142Z,8.37
2023-03-17T18:00:49.616Z,8.50
2023-03-17T18:04:54.508Z,8.23
2023-03-17T18:09:00.708Z,8.60
2023-03-17T18:13:02.620Z,8.33
2023-03-17T18:17:05.059Z,8.60
2023-03-17T18:21:06.935Z,9.30
2023-03-17T18:25:10.416Z,11.17
2023-03-17T18:29:12.326Z,9.60
2023-03-17T18:33:17.900Z,8.50
2023-03-17T18:37:19.849Z,8.27
2023-03-17T18:41:21.667Z,8.37
2023-03-17T18:45:26.859Z,7.57
2023-03-17T18:49:29.518Z,7.33
2023-03-17T18:53:35.365Z,7.33
2023-03-17T18:57:44.363Z,6.53
2023-03-17T19:01:46.858Z,7.03
2023-03-17T19:06:00.332Z,6.57
2023-03-17T19:10:02.404Z,6.27
2023-03-17T19:14:11.933Z,6.80
2023-03-17T19:18:15.500Z,6.80
2023-03-17T19:22:18.490Z,6.63
2023-03-17T19:26:36.695Z,5.93
2023-03-17T19:30:40.399Z,5.93
2023-03-17T19:34:42.748Z,6.47
2023-03-17T19:38:44.745Z,5.83
2023-03-17T19:43:07.289Z,5.80
2023-03-17T19:47:11.460Z,6.43
2023-03-17T19:51:14.844Z,5.27
2023-03-17T19:55:17.868Z,5.93
2023-03-17T19:59:22.718Z,5.47
2023-03-17T20:03:33.885Z,6.23
2023-03-17T20:07:36.679Z,6.10
2023-03-17T20:11:39.584Z,6.07
2023-03-17T20:15:44.756Z,5.37
2023-03-17T20:19:47.010Z,6.03
2023-03-17T20:23:48.826Z,5.40
2023-03-17T20:27:51.119Z,5.50
2023-03-17T20:31:53.092Z,5.17
2023-03-17T20:35:57.971Z,5.40
2023-03-17T20:40:02.586Z,6.10
2023-03-17T20:44:04.596Z,5.13
2023-03-17T20:48:10.577Z,5.00
2023-03-17T20:52:14.885Z,5.40
2023-03-17T20:56:19.790Z,5.30
2023-03-17T21:00:22.194Z,4.73
2023-03-17T21:04:24.741Z,5.10
2023-03-17T21:08:29.802Z,5.77
2023-03-17T21:12:31.883Z,5.37
2023-03-17T21:16:36.008Z,5.70
2023-03-17T21:20:37.826Z,6.03
2023-03-17T21:24:40.130Z,5.93
2023-03-17T21:28:45.389Z,5.10
2023-03-17T21:32:47.385Z,5.13
2023-03-17T21:36:51.852Z,5.27
2023-03-17T21:40:57.070Z,4.83
2023-03-17T21:44:58.915Z,5.00
2023-03-17T21:49:01.392Z,5.67
2023-03-17T21:53:04.625Z,5.13
2023-03-17T21:57:06.652Z,5.40
2023-03-17T22:01:09.294Z,5.00
2023-03-17T22:05:11.122Z,4.53
2023-03-17T22:09:13.028Z,4.80
2023-03-17T22:13:14.830Z,5.27
2023-03-17T22:17:16.850Z,5.10
2023-03-17T22:21:18.812Z,5.20
2023-03-17T22:25:22.931Z,5.30
2023-03-17T22:29:26.376Z,5.70
2023-03-17T22:33:28.512Z,5.03
2023-03-17T22:37:30.387Z,6.37
2023-03-17T22:41:32.213Z,5.03
2023-03-17T22:45:34.097Z,4.60
2023-03-17T22:49:36.198Z,4.87
2023-03-17T22:53:38.334Z,5.67
2023-03-17T22:57:40.333Z,5.60
2023-03-17T23:01:42.139Z,4.60
2023-03-17T23:05:57.068Z,5.20
2023-03-17T23:09:58.816Z,4.70
2023-03-17T23:14:00.560Z,5.07
2023-03-17T23:18:03.529Z,4.73
2023-03-17T23:22:05.425Z,4.93
2023-03-17T23:26:07.341Z,5.10
2023-03-17T23:30:11.967Z,4.50
2023-03-17T23:34:14.162Z,4.33
2023-03-17T23:38:19.523Z,4.90
2023-03-17T23:42:21.367Z,4.53
2023-03-17T23:46:23.677Z,4.33
2023-03-17T23:50:25.489Z,4.60
2023-03-17T23:54:27.981Z,4.23
2023-03-17T23:58:29.945Z,4.33
